Elk Creek, NY

9:53 PM EST on November 27, 2014 (GMT -0500)
Milford, NY | Change Station
CLOSE
Current Station
Personal Weather Station
Location: Milford, NY
Elevation: 1260 ft
Nearby Weather Stations

Elev 1260 ft 42.59 °N, 74.95 °W | Updated 1 minute ago

Overcast
Overcast
26.0 °F
Feels Like 26 °F
N
2.0
Wind Variable Wind from SW
Gusts 2.0 mph

Today
High -- | Low -- °F
--% Chance of Precip.
Yesterday
High -- | Low -- °F
Precip. -- in
7:05 AM 4:28 PM
Waxing Crescent, 35% visible
Pressure 30.05 in
Visibility 2.0 miles
Clouds Overcast 1000 ft
Windchill 26 °F
Dew Point 24 °F
Humidity 90%
Rainfall 0.00 in
Snow Depth Not available.
UV 0.0 out of 12
Pollen .10 out of 12
Air Quality Not available.
Flu Activity Not available.
METAR KSCH 280155Z 00000KT 2SM -SN BR OVC010 M02/M03 A3005

More Conditions Fewer Conditions

Pressure 30.05 in
Visibility 2.0 miles
Clouds Overcast 1000 ft
Windchill 26 °F
Dew Point 24 °F
Humidity 90%
Rainfall 0.00 in
Snow Depth Not available.
UV 0.0 out of 12
Pollen .10 out of 12
Air Quality Not available.
Flu Activity Not available.
METAR KSCH 280155Z 00000KT 2SM -SN BR OVC010 M02/M03 A3005

More Conditions Fewer Conditions

10-Day Weather Forecast

Almanac

Astronomy

Nov. 27, 2014 Rise Set
Actual Time
Civil Twilight
Nautical Twilight
Astronomical Twilight
Moon
Length of Visible Light
Length of Day
Tomorrow will be .
, % of the Moon is Illuminated

Today's Extremes

State Highs State Lows

Community

WunderPhotos

Upload Photos

1,774,164 photos uploaded!

WunderBlogs® & News

Nearby

Air Quality

  Air Quality AQ Index Pollutant
Not available.

Snow Depth

Station Depth Elevation

Earthquake Activity

City Distance Mag. Time & Date
Minimum magnitude displayed is 2.5.

Coastal Water Temperatures

Place Temperature

Nearby Weather Stations